sensor_id;sensor_type;location;lat;lon;timestamp;temperature;humidity
2825;DHT22;1420;51.324;12.344;2023-10-09T00:02:15;11.50;99.90
2825;DHT22;1420;51.324;12.344;2023-10-09T00:04:43;11.50;99.90
2825;DHT22;1420;51.324;12.344;2023-10-09T00:07:10;11.40;99.90
2825;DHT22;1420;51.324;12.344;2023-10-09T00:09:37;11.40;99.90
2825;DHT22;1420;51.324;12.344;2023-10-09T00:12:16;11.40;99.90
2825;DHT22;1420;51.324;12.344;2023-10-09T00:14:43;11.30;99.90
2825;DHT22;1420;51.324;12.344;2023-10-09T00:17:13;11.40;99.90
2825;DHT22;1420;51.324;12.344;2023-10-09T00:19:48;11.40;99.90
2825;DHT22;1420;51.324;12.344;2023-10-09T00:22:15;11.40;99.90
2825;DHT22;1420;51.324;12.344;2023-10-09T00:24:59;11.40;99.90
2825;DHT22;1420;51.324;12.344;2023-10-09T00:27:32;11.50;99.90
2825;DHT22;1420;51.324;12.344;2023-10-09T00:29:59;11.50;99.90
2825;DHT22;1420;51.324;12.344;2023-10-09T00:32:26;11.50;99.90
2825;DHT22;1420;51.324;12.344;2023-10-09T00:34:54;11.50;99.90
2825;DHT22;1420;51.324;12.344;2023-10-09T00:37:21;11.50;99.90
2825;DHT22;1420;51.324;12.344;2023-10-09T00:39:50;11.50;99.90
2825;DHT22;1420;51.324;12.344;2023-10-09T00:42:17;11.50;99.90
2825;DHT22;1420;51.324;12.344;2023-10-09T00:44:59;11.40;99.90
2825;DHT22;1420;51.324;12.344;2023-10-09T00:47:28;11.50;99.90
2825;DHT22;1420;51.324;12.344;2023-10-09T00:49:57;11.40;99.90
2825;DHT22;1420;51.324;12.344;2023-10-09T00:52:31;11.30;99.90
2825;DHT22;1420;51.324;12.344;2023-10-09T00:54:58;11.40;99.90
2825;DHT22;1420;51.324;12.344;2023-10-09T00:57:25;11.40;99.90
2825;DHT22;1420;51.324;12.344;2023-10-09T00:59:53;11.40;99.90
2825;DHT22;1420;51.324;12.344;2023-10-09T01:02:19;11.40;99.90
2825;DHT22;1420;51.324;12.344;2023-10-09T01:04:46;11.30;99.90
2825;DHT22;1420;51.324;12.344;2023-10-09T01:07:14;11.40;99.90
2825;DHT22;1420;51.324;12.344;2023-10-09T01:09:42;11.40;99.90
2825;DHT22;1420;51.324;12.344;2023-10-09T01:12:10;11.50;99.90
2825;DHT22;1420;51.324;12.344;2023-10-09T01:14:44;11.60;99.90
2825;DHT22;1420;51.324;12.344;2023-10-09T01:17:11;11.60;99.90
2825;DHT22;1420;51.324;12.344;2023-10-09T01:19:38;11.50;99.90
2825;DHT22;1420;51.324;12.344;2023-10-09T01:22:05;11.50;99.90
2825;DHT22;1420;51.324;12.344;2023-10-09T01:24:39;11.50;99.90
2825;DHT22;1420;51.324;12.344;2023-10-09T01:27:06;11.50;99.90
2825;DHT22;1420;51.324;12.344;2023-10-09T01:29:38;11.50;99.90
2825;DHT22;1420;51.324;12.344;2023-10-09T01:32:05;11.60;99.90
2825;DHT22;1420;51.324;12.344;2023-10-09T01:34:32;11.50;99.90
2825;DHT22;1420;51.324;12.344;2023-10-09T01:37:06;11.50;99.90
2825;DHT22;1420;51.324;12.344;2023-10-09T01:39:32;11.50;99.90
2825;DHT22;1420;51.324;12.344;2023-10-09T01:41:59;11.50;99.90
2825;DHT22;1420;51.324;12.344;2023-10-09T01:44:27;11.40;99.90
2825;DHT22;1420;51.324;12.344;2023-10-09T01:46:57;11.40;99.90
2825;DHT22;1420;51.324;12.344;2023-10-09T01:49:24;11.40;99.90
2825;DHT22;1420;51.324;12.344;2023-10-09T01:51:57;11.40;99.90
2825;DHT22;1420;51.324;12.344;2023-10-09T01:54:26;11.40;99.90
2825;DHT22;1420;51.324;12.344;2023-10-09T01:56:54;11.50;99.90
2825;DHT22;1420;51.324;12.344;2023-10-09T01:59:21;11.50;99.90
2825;DHT22;1420;51.324;12.344;2023-10-09T02:01:49;11.50;99.90
2825;DHT22;1420;51.324;12.344;2023-10-09T02:04:16;11.50;99.90
2825;DHT22;1420;51.324;12.344;2023-10-09T02:06:43;11.60;99.90
2825;DHT22;1420;51.324;12.344;2023-10-09T02:09:10;11.60;99.90
2825;DHT22;1420;51.324;12.344;2023-10-09T02:11:37;11.70;99.90
2825;DHT22;1420;51.324;12.344;2023-10-09T02:14:05;11.60;99.90
2825;DHT22;1420;51.324;12.344;2023-10-09T02:16:33;11.50;99.90
2825;DHT22;1420;51.324;12.344;2023-10-09T02:19:00;11.60;99.90
2825;DHT22;1420;51.324;12.344;2023-10-09T02:21:27;11.60;99.90
2825;DHT22;1420;51.324;12.344;2023-10-09T02:23:55;11.60;99.90
2825;DHT22;1420;51.324;12.344;2023-10-09T02:26:22;11.50;99.90
2825;DHT22;1420;51.324;12.344;2023-10-09T02:28:53;11.50;99.90
2825;DHT22;1420;51.324;12.344;2023-10-09T02:31:26;11.60;99.90
2825;DHT22;1420;51.324;12.344;2023-10-09T02:33:54;11.50;99.90
2825;DHT22;1420;51.324;12.344;2023-10-09T02:36:22;11.50;99.90
2825;DHT22;1420;51.324;12.344;2023-10-09T02:38:49;11.60;99.90
2825;DHT22;1420;51.324;12.344;2023-10-09T02:41:16;11.60;99.90
2825;DHT22;1420;51.324;12.344;2023-10-09T02:43:44;11.60;99.90
2825;DHT22;1420;51.324;12.344;2023-10-09T02:46:14;11.70;99.90
2825;DHT22;1420;51.324;12.344;2023-10-09T02:48:41;11.70;99.90
2825;DHT22;1420;51.324;12.344;2023-10-09T02:51:09;11.80;99.90
2825;DHT22;1420;51.324;12.344;2023-10-09T02:53:36;11.80;99.90
2825;DHT22;1420;51.324;12.344;2023-10-09T02:56:03;11.80;99.90
2825;DHT22;1420;51.324;12.344;2023-10-09T02:58:46;11.80;99.90
2825;DHT22;1420;51.324;12.344;2023-10-09T03:01:13;11.80;99.90
2825;DHT22;1420;51.324;12.344;2023-10-09T03:03:40;11.80;99.90
2825;DHT22;1420;51.324;12.344;2023-10-09T03:06:07;11.80;99.90
2825;DHT22;1420;51.324;12.344;2023-10-09T03:08:34;11.80;99.90
2825;DHT22;1420;51.324;12.344;2023-10-09T03:11:02;11.70;99.90
2825;DHT22;1420;51.324;12.344;2023-10-09T03:13:30;11.70;99.90
2825;DHT22;1420;51.324;12.344;2023-10-09T03:15:56;11.80;99.90
2825;DHT22;1420;51.324;12.344;2023-10-09T03:18:23;11.80;99.90
2825;DHT22;1420;51.324;12.344;2023-10-09T03:20:50;11.80;99.90
2825;DHT22;1420;51.324;12.344;2023-10-09T03:23:18;11.80;99.90
2825;DHT22;1420;51.324;12.344;2023-10-09T03:25:45;11.80;99.90
2825;DHT22;1420;51.324;12.344;2023-10-09T03:28:12;11.80;99.90
2825;DHT22;1420;51.324;12.344;2023-10-09T03:30:39;11.90;99.90
2825;DHT22;1420;51.324;12.344;2023-10-09T03:33:06;11.90;99.90
2825;DHT22;1420;51.324;12.344;2023-10-09T03:35:34;11.90;99.90
2825;DHT22;1420;51.324;12.344;2023-10-09T03:38:01;12.00;99.90
2825;DHT22;1420;51.324;12.344;2023-10-09T03:40:30;12.00;99.90
2825;DHT22;1420;51.324;12.344;2023-10-09T03:42:57;11.90;99.90
2825;DHT22;1420;51.324;12.344;2023-10-09T03:45:24;11.90;99.90
2825;DHT22;1420;51.324;12.344;2023-10-09T03:47:52;12.00;99.90
2825;DHT22;1420;51.324;12.344;2023-10-09T03:50:19;11.90;99.90
2825;DHT22;1420;51.324;12.344;2023-10-09T03:52:51;11.90;99.90
2825;DHT22;1420;51.324;12.344;2023-10-09T03:55:18;11.90;99.90
2825;DHT22;1420;51.324;12.344;2023-10-09T03:57:45;11.90;99.90
2825;DHT22;1420;51.324;12.344;2023-10-09T04:00:13;12.00;99.90
2825;DHT22;1420;51.324;12.344;2023-10-09T04:02:41;11.90;99.90
2825;DHT22;1420;51.324;12.344;2023-10-09T04:05:08;12.00;99.90
2825;DHT22;1420;51.324;12.344;2023-10-09T04:07:35;12.00;99.90
2825;DHT22;1420;51.324;12.344;2023-10-09T04:10:02;12.00;99.90
2825;DHT22;1420;51.324;12.344;2023-10-09T04:12:30;12.00;99.90
2825;DHT22;1420;51.324;12.344;2023-10-09T04:14:57;12.00;99.90
2825;DHT22;1420;51.324;12.344;2023-10-09T04:17:24;12.10;99.90
2825;DHT22;1420;51.324;12.344;2023-10-09T04:20:06;12.10;99.90
2825;DHT22;1420;51.324;12.344;2023-10-09T04:22:40;12.00;99.90
2825;DHT22;1420;51.324;12.344;2023-10-09T04:25:07;12.00;99.90
2825;DHT22;1420;51.324;12.344;2023-10-09T04:27:34;11.90;99.90
2825;DHT22;1420;51.324;12.344;2023-10-09T04:30:01;12.00;99.90
2825;DHT22;1420;51.324;12.344;2023-10-09T04:32:28;11.90;99.90
2825;DHT22;1420;51.324;12.344;2023-10-09T04:34:56;12.00;99.90
2825;DHT22;1420;51.324;12.344;2023-10-09T04:37:23;12.00;99.90
2825;DHT22;1420;51.324;12.344;2023-10-09T04:40:08;11.90;99.90
2825;DHT22;1420;51.324;12.344;2023-10-09T04:42:39;12.00;99.90
2825;DHT22;1420;51.324;12.344;2023-10-09T04:45:07;12.00;99.90
2825;DHT22;1420;51.324;12.344;2023-10-09T04:47:48;11.90;99.90
2825;DHT22;1420;51.324;12.344;2023-10-09T04:50:16;12.00;99.90
2825;DHT22;1420;51.324;12.344;2023-10-09T04:52:51;12.00;99.90
2825;DHT22;1420;51.324;12.344;2023-10-09T04:55:18;12.00;99.90
2825;DHT22;1420;51.324;12.344;2023-10-09T04:57:47;12.00;99.90
2825;DHT22;1420;51.324;12.344;2023-10-09T05:00:15;12.10;99.90
2825;DHT22;1420;51.324;12.344;2023-10-09T05:02:48;12.00;99.90
2825;DHT22;1420;51.324;12.344;2023-10-09T05:05:14;12.00;99.90
2825;DHT22;1420;51.324;12.344;2023-10-09T05:07:42;12.00;99.90
2825;DHT22;1420;51.324;12.344;2023-10-09T05:10:15;12.00;99.90
2825;DHT22;1420;51.324;12.344;2023-10-09T05:12:43;12.00;99.90
2825;DHT22;1420;51.324;12.344;2023-10-09T05:15:14;12.00;99.90
2825;DHT22;1420;51.324;12.344;2023-10-09T05:17:41;12.10;99.90
2825;DHT22;1420;51.324;12.344;2023-10-09T05:20:08;12.00;99.90
2825;DHT22;1420;51.324;12.344;2023-10-09T05:22:41;12.10;99.90
2825;DHT22;1420;51.324;12.344;2023-10-09T05:25:08;12.10;99.90
2825;DHT22;1420;51.324;12.344;2023-10-09T05:27:35;12.10;99.90
2825;DHT22;1420;51.324;12.344;2023-10-09T05:30:08;12.00;99.90
2825;DHT22;1420;51.324;12.344;2023-10-09T05:32:39;12.00;99.90
2825;DHT22;1420;51.324;12.344;2023-10-09T05:35:07;12.10;99.90
2825;DHT22;1420;51.324;12.344;2023-10-09T05:37:34;12.10;99.90
2825;DHT22;1420;51.324;12.344;2023-10-09T05:40:02;12.10;99.90
2825;DHT22;1420;51.324;12.344;2023-10-09T05:42:44;12.20;99.90
2825;DHT22;1420;51.324;12.344;2023-10-09T05:45:12;12.20;99.90
2825;DHT22;1420;51.324;12.344;2023-10-09T05:47:58;12.20;99.90
2825;DHT22;1420;51.324;12.344;2023-10-09T05:50:44;12.20;99.90
2825;DHT22;1420;51.324;12.344;2023-10-09T05:53:27;12.20;99.90
2825;DHT22;1420;51.324;12.344;2023-10-09T05:56:00;12.30;99.90
2825;DHT22;1420;51.324;12.344;2023-10-09T05:58:44;12.40;99.90
2825;DHT22;1420;51.324;12.344;2023-10-09T06:01:16;12.30;99.90
2825;DHT22;1420;51.324;12.344;2023-10-09T06:03:59;12.40;99.90
2825;DHT22;1420;51.324;12.344;2023-10-09T06:06:31;12.40;99.90
2825;DHT22;1420;51.324;12.344;2023-10-09T06:09:00;12.40;99.90
2825;DHT22;1420;51.324;12.344;2023-10-09T06:11:42;12.40;99.90
2825;DHT22;1420;51.324;12.344;2023-10-09T06:14:09;12.50;99.90
2825;DHT22;1420;51.324;12.344;2023-10-09T06:16:40;12.60;99.90
2825;DHT22;1420;51.324;12.344;2023-10-09T06:19:10;12.60;99.90
2825;DHT22;1420;51.324;12.344;2023-10-09T06:21:39;12.60;99.90
2825;DHT22;1420;51.324;12.344;2023-10-09T06:24:24;12.70;99.90
2825;DHT22;1420;51.324;12.344;2023-10-09T06:26:51;12.70;99.90
2825;DHT22;1420;51.324;12.344;2023-10-09T06:29:19;12.70;99.90
2825;DHT22;1420;51.324;12.344;2023-10-09T06:31:52;12.70;99.90
2825;DHT22;1420;51.324;12.344;2023-10-09T06:34:26;12.70;99.90
2825;DHT22;1420;51.324;12.344;2023-10-09T06:36:51;12.70;99.90
2825;DHT22;1420;51.324;12.344;2023-10-09T06:39:20;12.90;99.90
2825;DHT22;1420;51.324;12.344;2023-10-09T06:41:53;12.80;99.90
2825;DHT22;1420;51.324;12.344;2023-10-09T06:44:20;12.90;99.90
2825;DHT22;1420;51.324;12.344;2023-10-09T06:46:48;12.80;99.90
2825;DHT22;1420;51.324;12.344;2023-10-09T06:49:14;12.90;99.90
2825;DHT22;1420;51.324;12.344;2023-10-09T06:51:57;12.90;99.90
2825;DHT22;1420;51.324;12.344;2023-10-09T06:54:25;12.90;99.90
2825;DHT22;1420;51.324;12.344;2023-10-09T06:56:52;12.90;99.90
2825;DHT22;1420;51.324;12.344;2023-10-09T06:59:34;13.00;99.90
2825;DHT22;1420;51.324;12.344;2023-10-09T07:02:16;13.10;99.90
2825;DHT22;1420;51.324;12.344;2023-10-09T07:04:49;13.10;99.90
2825;DHT22;1420;51.324;12.344;2023-10-09T07:07:16;13.10;99.90
2825;DHT22;1420;51.324;12.344;2023-10-09T07:09:43;13.20;99.90
2825;DHT22;1420;51.324;12.344;2023-10-09T07:12:10;13.30;99.90
2825;DHT22;1420;51.324;12.344;2023-10-09T07:14:37;13.30;99.90
2825;DHT22;1420;51.324;12.344;2023-10-09T07:17:19;13.30;99.90
2825;DHT22;1420;51.324;12.344;2023-10-09T07:19:49;13.30;99.90
2825;DHT22;1420;51.324;12.344;2023-10-09T07:22:30;13.30;99.90
2825;DHT22;1420;51.324;12.344;2023-10-09T07:24:57;13.30;99.90
2825;DHT22;1420;51.324;12.344;2023-10-09T07:27:28;13.40;99.90
2825;DHT22;1420;51.324;12.344;2023-10-09T07:30:00;13.40;99.90
2825;DHT22;1420;51.324;12.344;2023-10-09T07:32:27;13.30;99.90
2825;DHT22;1420;51.324;12.344;2023-10-09T07:34:54;13.40;99.90
2825;DHT22;1420;51.324;12.344;2023-10-09T07:37:25;13.40;99.90
2825;DHT22;1420;51.324;12.344;2023-10-09T07:39:51;13.40;99.90
2825;DHT22;1420;51.324;12.344;2023-10-09T07:42:19;13.40;99.90
2825;DHT22;1420;51.324;12.344;2023-10-09T07:44:46;13.50;99.90
2825;DHT22;1420;51.324;12.344;2023-10-09T07:47:13;13.40;99.90
2825;DHT22;1420;51.324;12.344;2023-10-09T07:49:45;13.50;99.90
2825;DHT22;1420;51.324;12.344;2023-10-09T07:52:12;13.60;99.90
2825;DHT22;1420;51.324;12.344;2023-10-09T07:54:39;13.60;99.90
2825;DHT22;1420;51.324;12.344;2023-10-09T07:57:06;13.70;99.90
2825;DHT22;1420;51.324;12.344;2023-10-09T07:59:36;13.80;99.90
2825;DHT22;1420;51.324;12.344;2023-10-09T08:02:04;13.70;99.90
2825;DHT22;1420;51.324;12.344;2023-10-09T08:04:31;13.60;99.90
2825;DHT22;1420;51.324;12.344;2023-10-09T08:07:07;13.80;99.90
2825;DHT22;1420;51.324;12.344;2023-10-09T08:09:33;13.80;99.90
2825;DHT22;1420;51.324;12.344;2023-10-09T08:12:20;13.80;99.90
2825;DHT22;1420;51.324;12.344;2023-10-09T08:14:56;13.80;99.90
2825;DHT22;1420;51.324;12.344;2023-10-09T08:17:20;13.90;99.90
2825;DHT22;1420;51.324;12.344;2023-10-09T08:19:48;13.90;99.90
2825;DHT22;1420;51.324;12.344;2023-10-09T08:22:21;14.00;99.90
2825;DHT22;1420;51.324;12.344;2023-10-09T08:25:05;13.90;99.90
2825;DHT22;1420;51.324;12.344;2023-10-09T08:27:32;13.90;99.90
2825;DHT22;1420;51.324;12.344;2023-10-09T08:30:09;13.90;99.90
2825;DHT22;1420;51.324;12.344;2023-10-09T08:32:42;13.90;99.90
2825;DHT22;1420;51.324;12.344;2023-10-09T08:35:09;13.90;99.90
2825;DHT22;1420;51.324;12.344;2023-10-09T08:37:56;14.00;99.90
2825;DHT22;1420;51.324;12.344;2023-10-09T08:40:39;13.90;99.90
2825;DHT22;1420;51.324;12.344;2023-10-09T08:43:24;14.00;99.90
2825;DHT22;1420;51.324;12.344;2023-10-09T08:45:54;14.00;99.90
2825;DHT22;1420;51.324;12.344;2023-10-09T08:48:20;14.00;99.90
2825;DHT22;1420;51.324;12.344;2023-10-09T08:50:48;14.00;99.90
2825;DHT22;1420;51.324;12.344;2023-10-09T08:53:17;14.00;99.90
2825;DHT22;1420;51.324;12.344;2023-10-09T08:55:45;14.00;99.90
2825;DHT22;1420;51.324;12.344;2023-10-09T08:58:13;14.00;99.90
2825;DHT22;1420;51.324;12.344;2023-10-09T09:00:40;14.10;99.90
2825;DHT22;1420;51.324;12.344;2023-10-09T09:03:07;14.00;99.90
2825;DHT22;1420;51.324;12.344;2023-10-09T09:05:34;14.10;99.90
2825;DHT22;1420;51.324;12.344;2023-10-09T09:08:02;14.10;99.90
2825;DHT22;1420;51.324;12.344;2023-10-09T09:10:29;14.20;99.90
2825;DHT22;1420;51.324;12.344;2023-10-09T09:13:10;14.10;99.90
2825;DHT22;1420;51.324;12.344;2023-10-09T09:15:35;14.20;99.90
2825;DHT22;1420;51.324;12.344;2023-10-09T09:18:03;14.20;99.90
2825;DHT22;1420;51.324;12.344;2023-10-09T09:20:30;14.10;99.90
2825;DHT22;1420;51.324;12.344;2023-10-09T09:22:57;14.20;99.90
2825;DHT22;1420;51.324;12.344;2023-10-09T09:25:28;14.10;99.90
2825;DHT22;1420;51.324;12.344;2023-10-09T09:27:52;14.10;99.90
2825;DHT22;1420;51.324;12.344;2023-10-09T09:30:22;14.10;99.90
2825;DHT22;1420;51.324;12.344;2023-10-09T09:32:49;14.20;99.90
2825;DHT22;1420;51.324;12.344;2023-10-09T09:35:16;14.10;99.90
2825;DHT22;1420;51.324;12.344;2023-10-09T09:37:44;14.20;99.90
2825;DHT22;1420;51.324;12.344;2023-10-09T09:40:13;14.30;99.90
2825;DHT22;1420;51.324;12.344;2023-10-09T09:42:43;14.30;99.90
2825;DHT22;1420;51.324;12.344;2023-10-09T09:45:10;14.40;99.90
2825;DHT22;1420;51.324;12.344;2023-10-09T09:47:37;14.40;99.90
2825;DHT22;1420;51.324;12.344;2023-10-09T09:50:05;14.40;99.90
2825;DHT22;1420;51.324;12.344;2023-10-09T09:52:42;14.50;99.90
2825;DHT22;1420;51.324;12.344;2023-10-09T09:55:10;14.60;99.90
2825;DHT22;1420;51.324;12.344;2023-10-09T09:57:41;14.70;99.90
2825;DHT22;1420;51.324;12.344;2023-10-09T10:00:09;14.90;99.90
2825;DHT22;1420;51.324;12.344;2023-10-09T10:02:36;15.00;99.90
2825;DHT22;1420;51.324;12.344;2023-10-09T10:05:05;15.10;99.90
2825;DHT22;1420;51.324;12.344;2023-10-09T10:07:32;15.20;99.90
2825;DHT22;1420;51.324;12.344;2023-10-09T10:09:58;15.30;99.90
2825;DHT22;1420;51.324;12.344;2023-10-09T10:12:50;15.50;99.90
2825;DHT22;1420;51.324;12.344;2023-10-09T10:15:18;15.60;99.90
2825;DHT22;1420;51.324;12.344;2023-10-09T10:21:16;15.70;99.90
2825;DHT22;1420;51.324;12.344;2023-10-09T10:23:27;15.70;99.90
2825;DHT22;1420;51.324;12.344;2023-10-09T10:25:54;15.60;99.90
2825;DHT22;1420;51.324;12.344;2023-10-09T10:28:32;15.50;99.90
2825;DHT22;1420;51.324;12.344;2023-10-09T10:31:06;15.40;99.90
2825;DHT22;1420;51.324;12.344;2023-10-09T10:34:03;15.50;99.90
2825;DHT22;1420;51.324;12.344;2023-10-09T10:36:13;15.30;99.90
2825;DHT22;1420;51.324;12.344;2023-10-09T10:38:42;15.40;99.90
2825;DHT22;1420;51.324;12.344;2023-10-09T10:41:12;15.30;99.90
2825;DHT22;1420;51.324;12.344;2023-10-09T10:43:46;15.30;99.90
2825;DHT22;1420;51.324;12.344;2023-10-09T10:46:28;15.20;99.90
2825;DHT22;1420;51.324;12.344;2023-10-09T10:48:59;15.10;99.90
2825;DHT22;1420;51.324;12.344;2023-10-09T10:51:27;15.10;99.90
2825;DHT22;1420;51.324;12.344;2023-10-09T10:53:55;15.10;99.90
2825;DHT22;1420;51.324;12.344;2023-10-09T10:56:23;15.10;99.90
2825;DHT22;1420;51.324;12.344;2023-10-09T10:58:52;15.10;99.90
2825;DHT22;1420;51.324;12.344;2023-10-09T11:01:25;15.10;99.90
2825;DHT22;1420;51.324;12.344;2023-10-09T11:03:51;15.10;99.90
2825;DHT22;1420;51.324;12.344;2023-10-09T11:06:29;15.10;99.90
2825;DHT22;1420;51.324;12.344;2023-10-09T11:09:03;15.10;99.90
2825;DHT22;1420;51.324;12.344;2023-10-09T11:11:29;15.10;99.90
2825;DHT22;1420;51.324;12.344;2023-10-09T11:14:07;15.00;99.90
2825;DHT22;1420;51.324;12.344;2023-10-09T11:16:25;15.00;99.90
2825;DHT22;1420;51.324;12.344;2023-10-09T11:18:55;15.00;99.90
2825;DHT22;1420;51.324;12.344;2023-10-09T11:21:23;15.00;99.90
2825;DHT22;1420;51.324;12.344;2023-10-09T11:23:50;15.00;99.90
2825;DHT22;1420;51.324;12.344;2023-10-09T11:26:20;15.10;99.90
2825;DHT22;1420;51.324;12.344;2023-10-09T11:31:26;15.10;99.90
2825;DHT22;1420;51.324;12.344;2023-10-09T11:33:54;15.10;99.90
2825;DHT22;1420;51.324;12.344;2023-10-09T11:36:21;15.00;99.90
2825;DHT22;1420;51.324;12.344;2023-10-09T11:38:54;15.00;99.90
2825;DHT22;1420;51.324;12.344;2023-10-09T11:41:21;14.90;99.90
2825;DHT22;1420;51.324;12.344;2023-10-09T11:43:51;14.90;99.90
2825;DHT22;1420;51.324;12.344;2023-10-09T11:46:18;15.00;99.90
2825;DHT22;1420;51.324;12.344;2023-10-09T11:49:02;15.00;99.90
2825;DHT22;1420;51.324;12.344;2023-10-09T11:51:19;14.90;99.90
2825;DHT22;1420;51.324;12.344;2023-10-09T11:53:46;14.90;99.90
2825;DHT22;1420;51.324;12.344;2023-10-09T11:56:13;14.80;99.90
2825;DHT22;1420;51.324;12.344;2023-10-09T11:58:41;14.80;99.90
2825;DHT22;1420;51.324;12.344;2023-10-09T12:01:11;14.80;99.90
2825;DHT22;1420;51.324;12.344;2023-10-09T12:03:37;14.80;99.90
2825;DHT22;1420;51.324;12.344;2023-10-09T12:06:04;14.80;99.90
2825;DHT22;1420;51.324;12.344;2023-10-09T12:08:32;14.80;99.90
2825;DHT22;1420;51.324;12.344;2023-10-09T12:10:59;14.80;99.90
2825;DHT22;1420;51.324;12.344;2023-10-09T12:13:26;14.90;99.90
2825;DHT22;1420;51.324;12.344;2023-10-09T12:15:53;14.90;99.90
2825;DHT22;1420;51.324;12.344;2023-10-09T12:18:21;14.90;99.90
2825;DHT22;1420;51.324;12.344;2023-10-09T12:20:48;15.00;99.90
2825;DHT22;1420;51.324;12.344;2023-10-09T12:23:18;15.00;99.90
2825;DHT22;1420;51.324;12.344;2023-10-09T12:25:45;15.00;99.90
2825;DHT22;1420;51.324;12.344;2023-10-09T12:28:12;14.90;99.90
2825;DHT22;1420;51.324;12.344;2023-10-09T12:30:40;15.00;99.90
2825;DHT22;1420;51.324;12.344;2023-10-09T12:33:07;15.00;99.90
2825;DHT22;1420;51.324;12.344;2023-10-09T12:35:37;15.00;99.90
2825;DHT22;1420;51.324;12.344;2023-10-09T12:38:04;14.90;99.90
2825;DHT22;1420;51.324;12.344;2023-10-09T12:40:31;14.90;99.90
2825;DHT22;1420;51.324;12.344;2023-10-09T12:42:58;15.00;99.90
2825;DHT22;1420;51.324;12.344;2023-10-09T12:45:26;15.00;99.90
2825;DHT22;1420;51.324;12.344;2023-10-09T12:47:53;15.00;99.90
2825;DHT22;1420;51.324;12.344;2023-10-09T12:50:21;15.00;99.90
2825;DHT22;1420;51.324;12.344;2023-10-09T12:52:48;15.00;99.90
2825;DHT22;1420;51.324;12.344;2023-10-09T12:55:15;14.90;99.90
2825;DHT22;1420;51.324;12.344;2023-10-09T12:57:42;14.90;99.90
2825;DHT22;1420;51.324;12.344;2023-10-09T13:00:10;14.90;99.90
2825;DHT22;1420;51.324;12.344;2023-10-09T13:02:37;14.90;99.90
2825;DHT22;1420;51.324;12.344;2023-10-09T13:05:04;14.90;99.90
2825;DHT22;1420;51.324;12.344;2023-10-09T13:07:31;14.90;99.90
2825;DHT22;1420;51.324;12.344;2023-10-09T13:09:59;14.80;99.90
2825;DHT22;1420;51.324;12.344;2023-10-09T13:12:32;14.90;99.90
2825;DHT22;1420;51.324;12.344;2023-10-09T13:14:59;15.00;99.90
2825;DHT22;1420;51.324;12.344;2023-10-09T13:17:26;15.00;99.90
2825;DHT22;1420;51.324;12.344;2023-10-09T13:19:53;15.00;99.90
2825;DHT22;1420;51.324;12.344;2023-10-09T13:22:20;15.00;99.90
2825;DHT22;1420;51.324;12.344;2023-10-09T13:24:48;15.00;99.90
2825;DHT22;1420;51.324;12.344;2023-10-09T13:27:15;15.00;99.90
2825;DHT22;1420;51.324;12.344;2023-10-09T13:29:42;15.00;99.90
2825;DHT22;1420;51.324;12.344;2023-10-09T13:32:09;15.00;99.90
2825;DHT22;1420;51.324;12.344;2023-10-09T13:34:41;15.00;99.90
2825;DHT22;1420;51.324;12.344;2023-10-09T13:37:12;15.00;99.90
2825;DHT22;1420;51.324;12.344;2023-10-09T13:39:40;15.00;99.90
2825;DHT22;1420;51.324;12.344;2023-10-09T13:42:06;15.00;99.90
2825;DHT22;1420;51.324;12.344;2023-10-09T13:44:34;15.10;99.90
2825;DHT22;1420;51.324;12.344;2023-10-09T13:47:03;15.00;99.90
2825;DHT22;1420;51.324;12.344;2023-10-09T13:49:29;15.10;99.90
2825;DHT22;1420;51.324;12.344;2023-10-09T13:51:58;15.10;99.90
2825;DHT22;1420;51.324;12.344;2023-10-09T13:54:26;15.10;99.90
2825;DHT22;1420;51.324;12.344;2023-10-09T13:57:10;15.00;99.90
2825;DHT22;1420;51.324;12.344;2023-10-09T13:59:37;15.10;99.90
2825;DHT22;1420;51.324;12.344;2023-10-09T14:02:04;15.10;99.90
2825;DHT22;1420;51.324;12.344;2023-10-09T14:04:32;15.10;99.90
2825;DHT22;1420;51.324;12.344;2023-10-09T14:07:00;15.20;99.90
2825;DHT22;1420;51.324;12.344;2023-10-09T14:09:27;15.20;99.90
2825;DHT22;1420;51.324;12.344;2023-10-09T14:11:59;15.20;99.90
2825;DHT22;1420;51.324;12.344;2023-10-09T14:14:34;15.20;99.90
2825;DHT22;1420;51.324;12.344;2023-10-09T14:17:01;15.10;99.90
2825;DHT22;1420;51.324;12.344;2023-10-09T14:19:28;15.10;99.90
2825;DHT22;1420;51.324;12.344;2023-10-09T14:21:55;15.20;99.90
2825;DHT22;1420;51.324;12.344;2023-10-09T14:24:22;15.10;99.90
2825;DHT22;1420;51.324;12.344;2023-10-09T14:26:49;15.10;99.90
2825;DHT22;1420;51.324;12.344;2023-10-09T14:29:17;15.10;99.90
2825;DHT22;1420;51.324;12.344;2023-10-09T14:31:44;15.10;99.90
2825;DHT22;1420;51.324;12.344;2023-10-09T14:34:11;15.10;99.90
2825;DHT22;1420;51.324;12.344;2023-10-09T14:36:38;15.20;99.90
2825;DHT22;1420;51.324;12.344;2023-10-09T14:39:05;15.10;99.90
2825;DHT22;1420;51.324;12.344;2023-10-09T14:41:33;15.20;99.90
2825;DHT22;1420;51.324;12.344;2023-10-09T14:44:00;15.10;99.90
2825;DHT22;1420;51.324;12.344;2023-10-09T14:46:27;15.10;99.90
2825;DHT22;1420;51.324;12.344;2023-10-09T14:48:55;15.10;99.90
2825;DHT22;1420;51.324;12.344;2023-10-09T14:51:22;15.10;99.90
2825;DHT22;1420;51.324;12.344;2023-10-09T14:53:57;15.10;99.90
2825;DHT22;1420;51.324;12.344;2023-10-09T14:56:25;15.10;99.90
2825;DHT22;1420;51.324;12.344;2023-10-09T14:58:52;15.10;99.90
2825;DHT22;1420;51.324;12.344;2023-10-09T15:01:19;15.10;99.90
2825;DHT22;1420;51.324;12.344;2023-10-09T15:03:46;15.10;99.90
2825;DHT22;1420;51.324;12.344;2023-10-09T15:06:14;15.10;99.90
2825;DHT22;1420;51.324;12.344;2023-10-09T15:08:41;15.10;99.90
2825;DHT22;1420;51.324;12.344;2023-10-09T15:11:08;15.10;99.90
2825;DHT22;1420;51.324;12.344;2023-10-09T15:13:35;15.10;99.90
2825;DHT22;1420;51.324;12.344;2023-10-09T15:16:02;15.10;99.90
2825;DHT22;1420;51.324;12.344;2023-10-09T15:18:30;15.10;99.90
2825;DHT22;1420;51.324;12.344;2023-10-09T15:20:57;15.10;99.90
2825;DHT22;1420;51.324;12.344;2023-10-09T15:23:24;15.00;99.90
2825;DHT22;1420;51.324;12.344;2023-10-09T15:25:51;15.10;99.90
2825;DHT22;1420;51.324;12.344;2023-10-09T15:28:19;15.10;99.90
2825;DHT22;1420;51.324;12.344;2023-10-09T15:30:46;15.10;99.90
2825;DHT22;1420;51.324;12.344;2023-10-09T15:33:14;15.10;99.90
2825;DHT22;1420;51.324;12.344;2023-10-09T15:35:41;15.10;99.90
2825;DHT22;1420;51.324;12.344;2023-10-09T15:38:08;15.10;99.90
2825;DHT22;1420;51.324;12.344;2023-10-09T15:40:35;15.10;99.90
2825;DHT22;1420;51.324;12.344;2023-10-09T15:43:03;15.10;99.90
2825;DHT22;1420;51.324;12.344;2023-10-09T15:45:30;15.10;99.90
2825;DHT22;1420;51.324;12.344;2023-10-09T15:47:57;15.10;99.90
2825;DHT22;1420;51.324;12.344;2023-10-09T15:50:25;15.20;99.90
2825;DHT22;1420;51.324;12.344;2023-10-09T15:52:52;15.20;99.90
2825;DHT22;1420;51.324;12.344;2023-10-09T15:55:21;15.10;99.90
2825;DHT22;1420;51.324;12.344;2023-10-09T15:57:47;15.20;99.90
2825;DHT22;1420;51.324;12.344;2023-10-09T16:00:15;15.20;99.90
2825;DHT22;1420;51.324;12.344;2023-10-09T16:02:46;15.20;99.90
2825;DHT22;1420;51.324;12.344;2023-10-09T16:05:11;15.20;99.90